Time;durP1;ratioP1;P1;durP2;ratioP2;P2;SDS_P1;SDS_P2;PMS_P1;PMS_P2;Temp;Humidity;BMP_temperature;BMP_pressure;BME280_temperature;BME280_humidity;BME280_pressure;Samples;Min_cycle;Max_cycle;Signal;HPM_P1;HPM_P2
2024/03/06 00:00:13;;;;;;;8.52;5.65;;;15.80;99.90;;;;;;10541563;28;20050;-59
2024/03/06 00:05:15;;;;;;;8.80;6.47;;;15.80;99.90;;;;;;10541840;27;20046;-62
2024/03/06 00:10:17;;;;;;;8.32;5.85;;;15.80;99.90;;;;;;10541591;28;20048;-59
2024/03/06 00:15:21;;;;;;;7.53;4.80;;;15.70;99.90;;;;;;10538489;28;20047;-59
2024/03/06 00:20:23;;;;;;;6.55;5.20;;;15.60;99.90;;;;;;10541276;28;20470;-58
2024/03/06 00:25:25;;;;;;;7.53;5.20;;;15.70;99.90;;;;;;10544102;28;20040;-60
2024/03/06 00:30:28;;;;;;;11.73;8.35;;;15.60;99.90;;;;;;10547897;28;20514;-60
2024/03/06 00:35:30;;;;;;;17.65;12.40;;;15.70;99.90;;;;;;10549144;28;20059;-60
2024/03/06 00:40:32;;;;;;;17.13;12.80;;;15.60;99.90;;;;;;10550247;27;20164;-60
2024/03/06 00:45:36;;;;;;;13.65;9.10;;;15.50;99.90;;;;;;10546883;28;20089;-60
2024/03/06 00:50:38;;;;;;;5.95;4.15;;;15.60;99.90;;;;;;10549659;27;20387;-60
2024/03/06 00:55:40;;;;;;;7.57;5.30;;;15.60;99.90;;;;;;10546951;27;20197;-60
2024/03/06 01:00:43;;;;;;;6.90;5.45;;;15.60;99.90;;;;;;10546662;28;20165;-61
2024/03/06 01:05:46;;;;;;;7.50;5.35;;;15.60;99.90;;;;;;10543093;28;20130;-60
2024/03/06 01:10:48;;;;;;;5.35;4.35;;;15.50;99.90;;;;;;10547032;28;20058;-60
2024/03/06 01:15:53;;;;;;;5.95;4.28;;;15.50;99.90;;;;;;10548170;27;20075;-60
2024/03/06 01:20:55;;;;;;;8.68;5.03;;;15.50;99.90;;;;;;10542440;27;20052;-60
2024/03/06 01:25:57;;;;;;;6.93;5.17;;;15.50;99.90;;;;;;10547350;28;20071;-59
2024/03/06 01:31:00;;;;;;;9.32;5.38;;;15.50;99.90;;;;;;10544902;27;20480;-59
2024/03/06 01:36:02;;;;;;;4.15;3.42;;;15.50;99.90;;;;;;10546181;27;20505;-61
2024/03/06 01:41:05;;;;;;;16.17;11.60;;;15.50;99.90;;;;;;10545129;27;20123;-58
2024/03/06 01:46:08;;;;;;;17.10;12.27;;;15.60;99.90;;;;;;10544895;27;20791;-59
2024/03/06 01:51:10;;;;;;;7.75;4.85;;;15.50;99.90;;;;;;10543074;28;20064;-59
2024/03/06 01:56:17;;;;;;;7.43;5.72;;;15.50;99.90;;;;;;10541645;27;20044;-60
2024/03/06 02:01:22;;;;;;;6.53;4.75;;;15.50;99.90;;;;;;10545301;27;20047;-59
2024/03/06 02:06:24;;;;;;;7.25;5.03;;;15.50;99.90;;;;;;10540644;28;20047;-58
2024/03/06 02:11:28;;;;;;;6.70;4.57;;;15.50;99.90;;;;;;10538297;27;20159;-59
2024/03/06 02:16:31;;;;;;;11.90;8.40;;;15.50;99.90;;;;;;10540321;28;20050;-59
2024/03/06 02:21:35;;;;;;;11.75;4.70;;;15.50;99.90;;;;;;10536765;27;20043;-59
2024/03/06 02:26:38;;;;;;;6.10;4.47;;;15.50;99.90;;;;;;10541773;27;20134;-58
2024/03/06 02:31:39;;;;;;;11.90;8.55;;;15.40;99.90;;;;;;10541753;28;20055;-59
2024/03/06 02:36:43;;;;;;;5.50;3.67;;;15.40;99.90;;;;;;10541062;27;20057;-60
2024/03/06 02:41:45;;;;;;;5.13;3.70;;;15.40;99.90;;;;;;10541793;27;20047;-60
2024/03/06 02:46:48;;;;;;;5.75;4.35;;;15.40;99.90;;;;;;10542825;27;20048;-60
2024/03/06 02:51:51;;;;;;;8.05;4.95;;;15.40;99.90;;;;;;10542460;28;20048;-60
2024/03/06 02:56:54;;;;;;;6.10;4.03;;;15.30;99.90;;;;;;10541666;28;20161;-60
2024/03/06 03:01:56;;;;;;;14.20;9.27;;;15.40;99.90;;;;;;10540941;27;20051;-59
2024/03/06 03:06:59;;;;;;;4.37;3.27;;;15.40;99.90;;;;;;10545178;27;20047;-59
2024/03/06 03:12:01;;;;;;;5.13;3.80;;;15.40;99.90;;;;;;10544383;27;20477;-61
2024/03/06 03:17:05;;;;;;;6.05;4.40;;;15.40;99.90;;;;;;10542882;27;20040;-63
2024/03/06 03:22:10;;;;;;;8.32;6.00;;;15.40;99.90;;;;;;10543750;28;20058;-59
2024/03/06 03:27:12;;;;;;;5.25;3.88;;;15.40;99.90;;;;;;10544071;28;21115;-60
2024/03/06 03:32:16;;;;;;;8.43;5.93;;;15.40;99.90;;;;;;10541068;28;20059;-60
2024/03/06 03:37:19;;;;;;;5.78;4.18;;;15.40;99.90;;;;;;10543356;28;20044;-59
2024/03/06 03:42:21;;;;;;;5.60;4.53;;;15.50;99.90;;;;;;10538760;28;20047;-60
2024/03/06 03:47:23;;;;;;;10.82;6.97;;;15.40;99.90;;;;;;10539050;28;20852;-61
2024/03/06 03:52:27;;;;;;;4.65;3.95;;;15.40;99.90;;;;;;10538555;28;20066;-60
2024/03/06 04:15:32;;;;;;;12.50;8.20;;;15.70;99.90;;;;;;10565736;27;20710;-59
2024/03/06 04:20:34;;;;;;;9.65;6.90;;;15.60;99.90;;;;;;10575405;27;20051;-60
2024/03/06 04:25:37;;;;;;;10.17;7.17;;;15.50;99.90;;;;;;10576994;27;20044;-60
2024/03/06 04:30:40;;;;;;;8.13;6.10;;;15.50;99.90;;;;;;10576294;27;20477;-56
2024/03/06 04:35:42;;;;;;;16.15;10.40;;;15.50;99.90;;;;;;10577619;27;20093;-58
2024/03/06 04:40:45;;;;;;;11.75;7.97;;;15.40;99.90;;;;;;10574367;27;20047;-60
2024/03/06 04:45:48;;;;;;;7.68;6.00;;;15.40;99.90;;;;;;10571756;27;20079;-60
2024/03/06 04:50:50;;;;;;;9.75;6.72;;;15.30;99.90;;;;;;10571858;27;20109;-61
2024/03/06 04:55:52;;;;;;;13.47;7.80;;;15.20;99.90;;;;;;10574707;27;20047;-60
2024/03/06 05:00:55;;;;;;;7.40;5.53;;;15.30;99.90;;;;;;10575905;27;20476;-60
2024/03/06 05:05:58;;;;;;;6.28;4.70;;;15.40;99.90;;;;;;10573627;27;20051;-59
2024/03/06 05:11:02;;;;;;;10.10;6.75;;;15.50;99.90;;;;;;10575755;27;20047;-60
2024/03/06 05:16:07;;;;;;;9.55;6.82;;;15.60;99.90;;;;;;10575755;27;20047;-60
2024/03/06 05:21:10;;;;;;;6.93;6.03;;;15.60;99.90;;;;;;10568730;27;20100;-60
2024/03/06 05:26:12;;;;;;;7.65;6.18;;;15.70;99.90;;;;;;10547481;27;20059;-61
2024/03/06 05:31:19;;;;;;;11.33;6.43;;;15.70;99.90;;;;;;10545080;27;20126;-60
2024/03/06 05:36:21;;;;;;;10.98;7.85;;;15.60;99.90;;;;;;10544840;27;20524;-60
2024/03/06 05:41:23;;;;;;;7.33;5.00;;;15.70;99.90;;;;;;10545881;27;20055;-60
2024/03/06 05:46:27;;;;;;;4.78;3.88;;;15.60;99.90;;;;;;10542519;27;20590;-60
2024/03/06 05:51:30;;;;;;;10.52;6.28;;;15.60;99.90;;;;;;10545240;27;20055;-60
2024/03/06 05:56:32;;;;;;;11.73;6.85;;;15.60;99.90;;;;;;10543095;27;20451;-60
2024/03/06 06:01:35;;;;;;;8.43;6.13;;;15.60;99.90;;;;;;10543946;27;20101;-60
2024/03/06 06:06:37;;;;;;;5.30;4.22;;;15.90;99.90;;;;;;10542519;27;20058;-60
2024/03/06 06:11:40;;;;;;;8.30;6.20;;;15.90;99.90;;;;;;10535271;27;20079;-59
2024/03/06 06:16:43;;;;;;;8.32;6.25;;;15.80;99.90;;;;;;10541588;27;20063;-59
2024/03/06 06:21:47;;;;;;;9.02;6.78;;;15.90;99.90;;;;;;10539945;27;20473;-61
2024/03/06 06:26:49;;;;;;;9.05;7.15;;;15.90;99.90;;;;;;10539454;27;20058;-61
2024/03/06 06:31:53;;;;;;;9.50;6.23;;;15.90;99.90;;;;;;10540765;27;20035;-60
2024/03/06 06:36:55;;;;;;;8.45;6.20;;;16.00;99.90;;;;;;10546883;27;20472;-60
2024/03/06 06:41:57;;;;;;;12.20;7.13;;;15.70;99.90;;;;;;10548465;27;20051;-60
2024/03/06 06:47:01;;;;;;;8.13;5.78;;;15.70;99.90;;;;;;10543091;27;20586;-59
2024/03/06 06:52:03;;;;;;;14.27;10.40;;;15.50;99.90;;;;;;10539962;27;20050;-60
2024/03/06 06:57:05;;;;;;;11.70;5.87;;;15.50;99.90;;;;;;10539382;27;20101;-60
2024/03/06 07:02:08;;;;;;;10.33;7.13;;;15.40;99.90;;;;;;10540758;27;20149;-59
2024/03/06 07:07:10;;;;;;;9.38;6.57;;;15.50;99.90;;;;;;10540201;27;20107;-60
2024/03/06 07:12:12;;;;;;;7.77;5.13;;;15.70;99.90;;;;;;10540051;27;20059;-60
2024/03/06 07:17:15;;;;;;;7.72;5.88;;;16.00;99.90;;;;;;10536626;27;20051;-60
2024/03/06 07:22:17;;;;;;;10.35;6.30;;;16.00;99.90;;;;;;10539354;28;20047;-59
2024/03/06 07:27:19;;;;;;;9.30;5.67;;;16.00;99.90;;;;;;10537548;28;20059;-60
2024/03/06 07:32:23;;;;;;;20.77;10.77;;;16.10;99.90;;;;;;10541218;27;20526;-60
2024/03/06 07:37:25;;;;;;;19.20;8.00;;;16.00;99.90;;;;;;10536024;27;20910;-59
2024/03/06 07:42:28;;;;;;;9.52;6.72;;;15.90;99.90;;;;;;10536063;28;20044;-60
2024/03/06 07:47:31;;;;;;;7.40;6.20;;;16.00;99.90;;;;;;10534162;27;20051;-60
2024/03/06 07:52:33;;;;;;;7.45;5.07;;;16.20;99.90;;;;;;10536846;27;20857;-61
2024/03/06 07:57:35;;;;;;;16.77;11.57;;;16.30;99.90;;;;;;10536874;27;20055;-60
2024/03/06 08:02:39;;;;;;;13.40;8.07;;;16.40;99.90;;;;;;10537090;28;21332;-60
2024/03/06 08:07:41;;;;;;;11.35;6.05;;;16.60;99.90;;;;;;10540753;28;20054;-60
2024/03/06 08:12:49;;;;;;;10.75;7.15;;;16.40;99.90;;;;;;10537143;28;20058;-59
2024/03/06 08:17:58;;;;;;;13.27;7.50;;;16.40;99.90;;;;;;10535646;28;20047;-60
2024/03/06 08:23:00;;;;;;;30.42;9.57;;;16.30;99.90;;;;;;10540118;28;20043;-60
2024/03/06 08:28:03;;;;;;;50.37;13.77;;;16.40;99.90;;;;;;10532337;28;20126;-60
2024/03/06 08:33:10;;;;;;;13.65;7.07;;;16.40;99.90;;;;;;10537680;28;20040;-60
2024/03/06 08:38:12;;;;;;;12.02;5.72;;;16.40;99.90;;;;;;10534610;28;20856;-59
2024/03/06 08:43:15;;;;;;;18.57;6.10;;;16.50;99.90;;;;;;10537737;28;20043;-60
2024/03/06 08:48:19;;;;;;;18.27;7.70;;;16.40;99.90;;;;;;10538883;28;20054;-59
2024/03/06 08:53:21;;;;;;;25.30;12.23;;;16.30;99.90;;;;;;10533253;28;20052;-60
2024/03/06 08:58:23;;;;;;;23.80;13.60;;;16.30;99.90;;;;;;10535607;27;20052;-59
2024/03/06 09:03:26;;;;;;;12.38;7.95;;;16.30;99.90;;;;;;10545199;27;20528;-61
2024/03/06 09:08:28;;;;;;;10.85;7.72;;;16.40;99.90;;;;;;10538197;27;20139;-61
2024/03/06 09:13:30;;;;;;;8.65;5.50;;;16.40;99.90;;;;;;10543042;27;20096;-61
2024/03/06 09:18:37;;;;;;;14.97;10.57;;;16.40;99.90;;;;;;10541675;27;20100;-60
2024/03/06 09:23:39;;;;;;;23.63;13.43;;;16.50;99.90;;;;;;10540871;27;20457;-60
2024/03/06 09:28:41;;;;;;;22.15;13.57;;;16.50;99.90;;;;;;10542434;27;20062;-59
2024/03/06 09:33:46;;;;;;;17.30;11.35;;;16.40;99.90;;;;;;10539760;27;20076;-58
2024/03/06 09:38:48;;;;;;;21.20;14.70;;;16.30;99.90;;;;;;10545347;27;20060;-60
2024/03/06 09:43:50;;;;;;;29.45;18.05;;;16.50;99.90;;;;;;10546337;27;20128;-59
2024/03/06 09:48:57;;;;;;;21.85;13.50;;;16.50;99.90;;;;;;10538485;27;20051;-60
2024/03/06 09:53:59;;;;;;;20.05;14.77;;;16.60;99.90;;;;;;10541566;27;20067;-61
2024/03/06 09:59:03;;;;;;;21.55;13.43;;;16.60;99.90;;;;;;10541010;28;20048;-60
2024/03/06 10:04:20;;;;;;;17.92;11.15;;;16.70;99.90;;;;;;10546380;27;20513;-60
2024/03/06 10:09:27;;;;;;;18.38;12.25;;;16.70;99.90;;;;;;10550644;27;20155;-59
2024/03/06 10:14:29;;;;;;;20.52;10.30;;;16.20;99.90;;;;;;10551127;27;20039;-59
2024/03/06 10:19:37;;;;;;;21.63;13.27;;;16.20;99.90;;;;;;10549757;28;20058;-59
2024/03/06 10:24:40;;;;;;;19.33;13.38;;;16.00;99.90;;;;;;10542784;27;20042;-59
2024/03/06 10:29:42;;;;;;;21.73;14.30;;;16.20;99.90;;;;;;10539415;28;22558;-60
2024/03/06 10:34:46;;;;;;;11.57;8.38;;;15.70;99.90;;;;;;10537476;27;20189;-60
2024/03/06 10:39:51;;;;;;;17.40;12.23;;;16.30;99.90;;;;;;10540709;28;20051;-61
2024/03/06 10:44:56;;;;;;;16.27;9.20;;;16.30;99.90;;;;;;10540483;28;21580;-59
2024/03/06 10:50:04;;;;;;;21.42;12.32;;;16.10;99.90;;;;;;10537694;27;20505;-59
2024/03/06 10:55:07;;;;;;;16.73;10.00;;;14.90;99.90;;;;;;10539278;27;20043;-59
2024/03/06 11:00:17;;;;;;;;;;;16.10;99.90;;;;;;10539491;27;20186;-60
2024/03/06 11:05:21;;;;;;;12.45;8.75;;;16.10;99.90;;;;;;10539981;27;19926;-60
2024/03/06 11:10:33;;;;;;;13.25;6.68;;;16.50;99.90;;;;;;10534796;28;20585;-60
2024/03/06 11:15:35;;;;;;;13.38;9.57;;;16.80;99.90;;;;;;10537857;27;20121;-60
2024/03/06 11:20:40;;;;;;;17.42;11.48;;;16.90;99.90;;;;;;10536455;28;20051;-58
2024/03/06 11:26:02;;;;;;;17.98;12.13;;;17.00;99.90;;;;;;10535386;28;20059;-59
2024/03/06 11:31:13;;;;;;;20.97;14.63;;;17.10;99.90;;;;;;10527217;27;20391;-60
2024/03/06 11:36:21;;;;;;;24.60;19.10;;;16.90;99.90;;;;;;10535733;27;20166;-60
2024/03/06 11:41:24;;;;;;;24.33;16.80;;;16.00;99.90;;;;;;10537893;28;20052;-59
2024/03/06 11:46:43;;;;;;;10.07;6.95;;;16.20;99.90;;;;;;10535095;27;20043;-59
2024/03/06 11:51:47;;;;;;;12.13;9.00;;;16.70;99.90;;;;;;10536513;28;20059;-60
2024/03/06 11:56:51;;;;;;;16.55;12.05;;;17.00;99.90;;;;;;10533493;27;20131;-61
2024/03/06 12:01:54;;;;;;;13.35;9.75;;;16.90;99.90;;;;;;10540392;27;20099;-60
2024/03/06 12:06:59;;;;;;;14.25;10.05;;;17.10;99.90;;;;;;10538749;27;20783;-61
2024/03/06 12:12:02;;;;;;;19.90;11.90;;;17.20;99.90;;;;;;10533527;28;20053;-57
2024/03/06 12:17:04;;;;;;;15.55;10.18;;;17.00;99.90;;;;;;10535019;28;20630;-59
2024/03/06 12:22:08;;;;;;;21.90;15.20;;;17.10;99.90;;;;;;10535181;28;20048;-56
2024/03/06 12:27:11;;;;;;;15.48;11.15;;;17.80;99.90;;;;;;10536503;28;20055;-52
2024/03/06 12:32:20;;;;;;;18.20;11.88;;;17.90;99.90;;;;;;10536525;28;20237;-54
2024/03/06 12:37:31;;;;;;;13.02;9.50;;;18.10;99.90;;;;;;10546550;27;20055;-55
2024/03/06 12:42:33;;;;;;;14.50;6.68;;;18.10;99.90;;;;;;10537745;27;20039;-55
2024/03/06 12:47:35;;;;;;;9.63;8.52;;;18.10;99.90;;;;;;10548660;27;20100;-54
2024/03/06 12:52:39;;;;;;;11.02;7.05;;;18.30;99.90;;;;;;10554580;27;20458;-56
2024/03/06 12:57:41;;;;;;;7.13;5.28;;;18.40;99.90;;;;;;10546434;27;20051;-56
2024/03/06 13:02:44;;;;;;;9.48;6.85;;;18.50;99.90;;;;;;10552782;27;20052;-57
2024/03/06 13:07:47;;;;;;;6.57;5.88;;;18.60;99.90;;;;;;10552783;28;20175;-54
2024/03/06 13:12:49;;;;;;;23.63;15.43;;;18.70;99.90;;;;;;10551097;27;20451;-53
2024/03/06 13:17:52;;;;;;;23.70;16.73;;;18.90;99.90;;;;;;10547130;28;20044;-57
2024/03/06 13:22:55;;;;;;;25.15;16.92;;;18.90;99.90;;;;;;10547702;27;20051;-55
2024/03/06 13:27:58;;;;;;;22.70;16.35;;;19.00;99.90;;;;;;10547236;27;20066;-55
2024/03/06 13:33:01;;;;;;;19.08;14.93;;;19.20;99.90;;;;;;10546059;27;20367;-55
2024/03/06 13:38:04;;;;;;;22.60;17.13;;;19.20;99.90;;;;;;10546782;27;20055;-55
2024/03/06 13:43:07;;;;;;;22.90;18.20;;;19.20;99.90;;;;;;10543304;27;20162;-56
2024/03/06 13:48:16;;;;;;;22.70;16.88;;;19.20;99.90;;;;;;10533887;27;20043;-57
2024/03/06 13:53:19;;;;;;;27.52;19.45;;;19.30;99.90;;;;;;10538429;27;20190;-57
2024/03/06 13:58:21;;;;;;;26.33;20.23;;;19.50;99.90;;;;;;10540496;27;20085;-55
2024/03/06 14:03:24;;;;;;;20.73;15.93;;;19.70;99.90;;;;;;10541420;27;20655;-58
2024/03/06 14:08:27;;;;;;;27.52;19.67;;;19.80;99.90;;;;;;10540552;27;20048;-58
2024/03/06 14:13:29;;;;;;;26.80;18.27;;;20.00;99.90;;;;;;10539582;27;20083;-57
2024/03/06 14:18:31;;;;;;;24.08;19.35;;;20.10;99.90;;;;;;10540505;27;20518;-55
2024/03/06 14:23:34;;;;;;;27.75;18.38;;;20.30;99.60;;;;;;10541779;27;20059;-59
2024/03/06 14:28:38;;;;;;;26.10;20.27;;;20.50;99.90;;;;;;10542232;27;20062;-58
2024/03/06 14:33:41;;;;;;;29.73;21.52;;;20.60;99.00;;;;;;10538046;27;20176;-59
2024/03/06 14:38:46;;;;;;;29.88;21.38;;;20.10;99.90;;;;;;10534311;27;20078;-59
2024/03/06 14:43:48;;;;;;;33.58;19.67;;;20.80;99.90;;;;;;10534562;27;20052;-59
2024/03/06 14:48:57;;;;;;;29.45;20.80;;;20.70;99.90;;;;;;10534020;27;20059;-60
2024/03/06 14:54:00;;;;;;;33.05;23.27;;;20.00;99.90;;;;;;10534644;27;20462;-61
2024/03/06 14:59:03;;;;;;;30.90;22.10;;;21.00;99.90;;;;;;10528562;27;20059;-60
2024/03/06 15:04:05;;;;;;;;;;;21.40;99.90;;;;;;10539778;27;20072;-59
2024/03/06 15:09:11;;;;;;;29.00;20.48;;;21.50;99.90;;;;;;10537726;27;19920;-58
2024/03/06 15:14:13;;;;;;;29.60;22.67;;;21.60;99.90;;;;;;10535661;27;20040;-59
2024/03/06 15:19:16;;;;;;;;;;;21.60;99.90;;;;;;10540301;27;20047;-58
2024/03/06 15:24:20;;;;;;;29.35;22.83;;;21.50;99.30;;;;;;10535898;27;19932;-59
2024/03/06 15:29:23;;;;;;;25.90;17.42;;;21.40;99.90;;;;;;10536309;27;20055;-59
2024/03/06 15:34:25;;;;;;;32.85;23.60;;;21.50;99.90;;;;;;10543706;27;20819;-59
2024/03/06 15:39:28;;;;;;;33.50;24.13;;;21.10;99.90;;;;;;10538634;27;20418;-59
2024/03/06 15:44:30;;;;;;;34.08;23.08;;;20.70;98.60;;;;;;10536851;27;20050;-60
2024/03/06 15:49:32;;;;;;;32.58;24.45;;;20.80;97.40;;;;;;10541370;27;20121;-61
2024/03/06 15:54:37;;;;;;;35.75;24.30;;;21.10;99.90;;;;;;10536425;27;20052;-61
2024/03/06 15:59:40;;;;;;;32.58;23.17;;;19.60;99.90;;;;;;10536081;27;20048;-60
2024/03/06 16:04:42;;;;;;;37.38;25.75;;;19.50;99.90;;;;;;10536106;27;20055;-60
2024/03/06 16:09:45;;;;;;;33.60;22.77;;;19.50;99.90;;;;;;10538346;27;20085;-59
2024/03/06 16:14:47;;;;;;;31.08;21.05;;;19.60;99.90;;;;;;10537059;28;20189;-59
2024/03/06 16:19:50;;;;;;;33.17;21.90;;;18.40;99.90;;;;;;10541830;28;20077;-60
2024/03/06 16:24:53;;;;;;;36.13;22.58;;;18.30;99.90;;;;;;10544689;28;20047;-57
2024/03/06 16:29:56;;;;;;;37.92;25.75;;;19.70;99.90;;;;;;10537056;28;20650;-58
2024/03/06 16:34:58;;;;;;;32.33;22.27;;;20.10;96.60;;;;;;10540685;28;20048;-60
2024/03/06 16:40:02;;;;;;;34.45;23.23;;;20.70;99.90;;;;;;10544884;28;20051;-60
2024/03/06 16:45:11;;;;;;;30.63;21.92;;;20.90;99.90;;;;;;10541452;28;20047;-59
2024/03/06 16:50:15;;;;;;;35.95;24.50;;;20.70;99.90;;;;;;10538683;28;20050;-59
2024/03/06 16:55:18;;;;;;;34.22;24.17;;;20.70;99.90;;;;;;10538241;28;20032;-60
2024/03/06 17:00:22;;;;;;;42.45;28.30;;;20.60;99.90;;;;;;10535084;28;20082;-60
2024/03/06 17:05:24;;;;;;;38.40;26.27;;;20.10;99.90;;;;;;10538173;28;20047;-59
2024/03/06 17:10:29;;;;;;;57.30;29.75;;;19.70;99.90;;;;;;10535188;28;20071;-59
2024/03/06 17:15:32;;;;;;;40.33;25.17;;;19.80;99.90;;;;;;10533015;28;20515;-61
2024/03/06 17:20:33;;;;;;;;;;;19.30;99.90;;;;;;10538277;28;20047;-60
2024/03/06 17:25:38;;;;;;;50.33;29.13;;;20.20;99.90;;;;;;10530617;27;19927;-60
2024/03/06 17:30:41;;;;;;;48.92;25.95;;;20.20;99.90;;;;;;10536742;27;20395;-60
2024/03/06 17:35:44;;;;;;;59.25;25.35;;;19.70;99.90;;;;;;10537277;27;20503;-59
2024/03/06 17:40:50;;;;;;;54.10;20.48;;;19.80;99.90;;;;;;10533330;27;20105;-60
2024/03/06 17:45:52;;;;;;;68.45;28.75;;;19.40;99.90;;;;;;10526037;27;20048;-59
2024/03/06 17:50:59;;;;;;;57.38;24.23;;;19.30;99.90;;;;;;10536017;27;20166;-59
2024/03/06 17:56:03;;;;;;;85.18;27.35;;;19.40;99.90;;;;;;10534047;28;20047;-58
2024/03/06 18:01:06;;;;;;;43.85;23.10;;;19.90;99.90;;;;;;10533376;27;20054;-61
2024/03/06 18:06:10;;;;;;;97.57;27.48;;;20.00;99.90;;;;;;10538262;27;20128;-60
2024/03/06 18:11:14;;;;;;;121.10;27.10;;;19.70;99.90;;;;;;10532898;27;20064;-60
2024/03/06 18:16:16;;;;;;;80.25;27.15;;;19.30;99.90;;;;;;10531111;27;20050;-62
2024/03/06 18:21:18;;;;;;;75.47;25.73;;;19.10;99.90;;;;;;10539065;27;20059;-59
2024/03/06 18:26:22;;;;;;;53.53;27.65;;;19.10;99.90;;;;;;10534383;28;20071;-60
2024/03/06 18:31:24;;;;;;;58.80;28.25;;;19.10;99.90;;;;;;10535589;27;20055;-59
2024/03/06 18:36:26;;;;;;;52.10;30.92;;;18.90;99.90;;;;;;10538545;27;20121;-59
2024/03/06 18:41:30;;;;;;;42.03;24.80;;;18.30;99.90;;;;;;10539382;27;20052;-61
2024/03/06 18:46:33;;;;;;;45.53;30.58;;;17.90;99.90;;;;;;10534951;28;20054;-59
2024/03/06 18:51:35;;;;;;;67.25;31.60;;;17.80;99.90;;;;;;10530826;27;20100;-60
2024/03/06 18:56:39;;;;;;;137.40;29.85;;;16.70;99.90;;;;;;10540294;27;20059;-60
2024/03/06 19:01:41;;;;;;;286.67;32.47;;;16.70;99.90;;;;;;10530569;28;20055;-59
2024/03/06 19:06:49;;;;;;;140.90;30.08;;;16.70;99.90;;;;;;10535322;27;20164;-60
2024/03/06 19:11:52;;;;;;;417.70;31.20;;;16.90;99.90;;;;;;10527491;28;20815;-61
2024/03/06 19:16:54;;;;;;;153.77;20.73;;;16.80;99.90;;;;;;10531568;27;20082;-60
2024/03/06 19:21:56;;;;;;;76.93;18.23;;;17.10;99.90;;;;;;10522924;27;20058;-59
2024/03/06 19:27:00;;;;;;;38.95;16.27;;;17.40;99.90;;;;;;10531066;27;20052;-58
2024/03/06 19:32:03;;;;;;;67.97;15.15;;;18.20;99.90;;;;;;10528671;27;20547;-60
2024/03/06 19:37:05;;;;;;;109.95;19.65;;;18.30;99.90;;;;;;10532582;28;20047;-59
2024/03/06 19:42:09;;;;;;;37.40;14.05;;;18.40;99.90;;;;;;10522895;27;20097;-61
2024/03/06 19:47:11;;;;;;;59.70;29.38;;;18.40;99.90;;;;;;10525984;27;20044;-60
2024/03/06 19:52:13;;;;;;;25.63;15.90;;;18.40;99.90;;;;;;10525937;27;20047;-61
2024/03/06 19:57:16;;;;;;;34.72;24.10;;;18.40;99.90;;;;;;10535795;28;20977;-59
2024/03/06 20:02:19;;;;;;;28.45;20.02;;;18.30;99.90;;;;;;10531723;28;20131;-60
2024/03/06 20:07:21;;;;;;;22.67;14.05;;;18.30;99.90;;;;;;10532888;27;20480;-60
2024/03/06 20:12:24;;;;;;;;;;;18.10;99.90;;;;;;10533123;28;20052;-59
2024/03/06 20:17:27;;;;;;;26.83;14.10;;;18.00;99.90;;;;;;10533257;28;19951;-60
2024/03/06 20:22:29;;;;;;;;;;;18.00;99.90;;;;;;10529958;28;20059;-59
2024/03/06 20:27:33;;;;;;;38.63;25.65;;;17.90;99.90;;;;;;10532280;28;19928;-62
2024/03/06 20:32:35;;;;;;;26.10;16.20;;;17.90;99.90;;;;;;10530001;28;20051;-60
2024/03/06 20:37:37;;;;;;;30.35;20.88;;;17.90;99.90;;;;;;10527929;28;20083;-60
2024/03/06 20:42:40;;;;;;;28.90;20.35;;;17.90;99.90;;;;;;10530457;28;20499;-61
2024/03/06 20:47:43;;;;;;;29.85;17.15;;;17.80;99.90;;;;;;10525601;28;20106;-60
2024/03/06 20:52:46;;;;;;;28.65;16.35;;;17.70;99.90;;;;;;10524731;28;20169;-61
2024/03/06 20:57:49;;;;;;;24.95;15.68;;;17.60;99.90;;;;;;10530221;27;20570;-63
2024/03/06 21:02:52;;;;;;;23.77;14.25;;;17.60;99.90;;;;;;10543245;27;20521;-61
2024/03/06 21:07:54;;;;;;;26.17;14.13;;;17.50;99.90;;;;;;10535169;28;20153;-60
2024/03/06 21:12:57;;;;;;;25.35;12.95;;;17.50;99.90;;;;;;10533092;27;20156;-60
2024/03/06 21:17:59;;;;;;;25.00;12.63;;;17.50;99.90;;;;;;10538294;28;20048;-61
2024/03/06 21:23:01;;;;;;;29.27;12.48;;;17.60;99.90;;;;;;10530427;27;20087;-60
2024/03/06 21:28:05;;;;;;;22.17;12.18;;;17.50;99.90;;;;;;10536684;27;21279;-60
2024/03/06 21:33:07;;;;;;;22.50;11.93;;;17.60;99.90;;;;;;10537638;27;20086;-62
2024/03/06 21:38:09;;;;;;;27.60;14.65;;;17.50;99.90;;;;;;10537522;27;20046;-63
2024/03/06 21:43:15;;;;;;;22.65;13.73;;;17.60;99.90;;;;;;10540252;27;20427;-59
2024/03/06 21:48:17;;;;;;;22.95;12.57;;;17.50;99.90;;;;;;10537947;27;20565;-61
2024/03/06 21:53:19;;;;;;;23.20;11.20;;;17.40;99.90;;;;;;10534295;27;20211;-60
2024/03/06 21:58:23;;;;;;;22.35;11.00;;;17.40;99.90;;;;;;10537097;28;20079;-60
2024/03/06 22:03:25;;;;;;;27.02;13.95;;;17.40;99.90;;;;;;10534864;27;20131;-60
2024/03/06 22:08:27;;;;;;;;;;;17.40;99.90;;;;;;10531331;28;20048;-62
2024/03/06 22:13:32;;;;;;;28.02;14.07;;;17.20;99.90;;;;;;10545366;27;21222;-61
2024/03/06 22:18:34;;;;;;;31.55;16.25;;;17.20;99.90;;;;;;10544955;27;20146;-63
2024/03/06 22:23:36;;;;;;;21.42;12.90;;;17.00;99.90;;;;;;10546566;28;20048;-61
2024/03/06 22:28:39;;;;;;;27.25;16.10;;;17.10;99.90;;;;;;10541719;27;20039;-60
2024/03/06 22:33:41;;;;;;;30.35;16.02;;;16.90;99.90;;;;;;10540047;27;20143;-61
2024/03/06 22:38:44;;;;;;;26.33;13.35;;;17.00;99.90;;;;;;10542163;27;20075;-61
2024/03/06 22:43:48;;;;;;;19.08;12.13;;;16.80;99.90;;;;;;10540201;27;20060;-61
2024/03/06 22:48:50;;;;;;;25.92;13.70;;;16.80;99.90;;;;;;10544069;27;20151;-60
2024/03/06 22:53:52;;;;;;;20.35;12.70;;;16.80;99.90;;;;;;10529535;27;20048;-60
2024/03/06 22:58:55;;;;;;;25.17;12.80;;;16.80;99.90;;;;;;10529312;27;20082;-60
2024/03/06 23:03:57;;;;;;;25.63;13.38;;;16.50;99.90;;;;;;10541568;27;20489;-60
2024/03/06 23:08:59;;;;;;;28.75;15.80;;;16.70;99.90;;;;;;10541290;27;20044;-59
2024/03/06 23:14:02;;;;;;;22.67;13.18;;;16.50;99.90;;;;;;10536112;27;20062;-60
2024/03/06 23:19:04;;;;;;;21.35;12.57;;;16.50;99.90;;;;;;10542816;27;20132;-59
2024/03/06 23:24:07;;;;;;;21.60;13.57;;;16.40;99.90;;;;;;10538983;27;20750;-60
2024/03/06 23:29:12;;;;;;;;;;;16.40;99.90;;;;;;10542555;27;20468;-59
2024/03/06 23:34:15;;;;;;;19.65;10.80;;;16.40;99.90;;;;;;10533574;28;19972;-60
2024/03/06 23:39:18;;;;;;;28.48;15.23;;;16.30;99.90;;;;;;10533591;28;20044;-61
2024/03/06 23:44:27;;;;;;;23.33;13.35;;;16.30;99.90;;;;;;10534981;27;20055;-60
2024/03/06 23:49:29;;;;;;;28.85;15.38;;;16.30;99.90;;;;;;10531017;28;20863;-60
2024/03/06 23:54:36;;;;;;;23.05;11.63;;;16.30;99.90;;;;;;10532801;27;20108;-61
2024/03/06 23:59:43;;;;;;;24.70;14.50;;;16.10;99.90;;;;;;10534012;27;20050;-61
